Time;durP1;ratioP1;P1;durP2;ratioP2;P2;SDS_P1;SDS_P2;PMS_P1;PMS_P2;Temp;Humidity;BMP_temperature;BMP_pressure;BME280_temperature;BME280_humidity;BME280_pressure;Samples;Min_cycle;Max_cycle;Signal;HPM_P1;HPM_P2
2021/12/01 00:01:10;;;;;;;0.10;0.10;;;4.40;99.90;3.10;95818.00;;;;5021011;28;20293;-73
2021/12/01 00:03:40;;;;;;;0.10;0.10;;;4.40;99.90;3.30;95845.00;;;;5021729;28;20200;-73
2021/12/01 00:06:10;;;;;;;0.10;0.10;;;4.50;99.90;2.90;93587.00;;;;5029785;28;20202;-74
2021/12/01 00:08:39;;;;;;;0.10;0.10;;;4.50;99.90;3.20;95859.00;;;;5020227;28;20208;-73
2021/12/01 00:11:07;;;;;;;0.10;0.10;;;4.50;99.90;3.20;95824.00;;;;5020606;28;20211;-73
2021/12/01 00:13:36;;;;;;;0.10;0.10;;;4.50;99.90;3.20;95860.00;;;;5021835;28;20225;-73
2021/12/01 00:16:07;;;;;;;0.10;0.10;;;4.50;99.90;3.30;95852.00;;;;5021400;28;20198;-74
2021/12/01 00:18:36;;;;;;;0.10;0.10;;;4.60;99.90;3.30;95855.00;;;;5022604;28;20251;-74
2021/12/01 00:21:04;;;;;;;0.10;0.10;;;4.60;99.90;3.30;95866.00;;;;5020775;28;20766;-74
2021/12/01 00:23:32;;;;;;;0.10;0.10;;;4.60;99.90;3.30;95846.00;;;;5022839;28;20229;-73
2021/12/01 00:26:01;;;;;;;0.10;0.10;;;4.60;99.90;2.90;95393.00;;;;5022662;28;20256;-74
2021/12/01 00:28:30;;;;;;;0.10;0.10;;;4.60;99.90;3.30;95847.00;;;;5024555;28;20657;-73
2021/12/01 00:31:00;;;;;;;0.10;0.10;;;4.60;99.90;3.30;95823.00;;;;5028085;28;20219;-74
2021/12/01 00:33:29;;;;;;;0.10;0.10;;;4.60;99.90;3.30;95843.00;;;;5029806;28;20278;-73
2021/12/01 00:35:58;;;;;;;0.10;0.10;;;4.60;99.90;3.30;95858.00;;;;5024564;28;20206;-73
2021/12/01 00:38:28;;;;;;;0.10;0.10;;;4.60;99.90;3.20;95786.00;;;;5020520;28;20210;-75
2021/12/01 00:40:57;;;;;;;0.10;0.10;;;4.60;99.90;3.40;95816.00;;;;5037669;28;20215;-74
2021/12/01 00:43:26;;;;;;;0.10;0.10;;;4.70;99.90;3.40;95804.00;;;;5023461;28;20195;-74
2021/12/01 00:45:56;;;;;;;0.10;0.10;;;4.70;99.90;3.50;95840.00;;;;5035851;28;20214;-73
2021/12/01 00:48:27;;;;;;;0.10;0.10;;;4.70;99.90;3.40;95825.00;;;;5023659;28;20218;-73
2021/12/01 00:50:55;;;;;;;0.10;0.10;;;4.70;99.90;3.50;95805.00;;;;5020226;28;20230;-73
2021/12/01 00:53:23;;;;;;;0.10;0.10;;;4.70;99.90;3.40;95804.00;;;;5021883;28;20214;-73
2021/12/01 00:55:51;;;;;;;0.10;0.10;;;4.70;99.90;3.30;95787.00;;;;5022851;28;20207;-74
2021/12/01 00:58:19;;;;;;;0.10;0.10;;;4.60;99.90;3.40;95813.00;;;;5022146;28;20227;-74
2021/12/01 01:00:49;;;;;;;0.10;0.10;;;4.70;99.90;3.10;95520.00;;;;5021388;28;20219;-74
2021/12/01 01:03:18;;;;;;;0.10;0.10;;;4.60;99.90;3.20;95749.00;;;;5023241;28;20313;-74
2021/12/01 01:05:49;;;;;;;0.10;0.10;;;4.60;99.90;3.40;95775.00;;;;5020752;28;20315;-73
2021/12/01 01:08:18;;;;;;;0.10;0.10;;;4.60;99.90;3.10;95516.00;;;;5021703;28;20195;-73
2021/12/01 01:11:07;;;;;;;0.10;0.10;;;4.60;99.90;3.40;95811.00;;;;5020878;28;20590;-74
2021/12/01 01:16:23;;;;;;;0.10;0.10;;;4.70;99.90;3.50;95791.00;;;;5021598;28;20195;-74
2021/12/01 01:18:58;;;;;;;0.10;0.10;;;4.70;99.90;3.00;94647.00;;;;5022027;28;20188;-74
2021/12/01 01:21:31;;;;;;;0.10;0.10;;;4.80;99.90;3.50;95760.00;;;;5022629;28;20208;-75
2021/12/01 01:24:00;;;;;;;0.10;0.10;;;4.80;99.90;3.60;95798.00;;;;5021414;28;20195;-74
2021/12/01 01:26:29;;;;;;;0.10;0.10;;;4.80;99.90;3.50;95770.00;;;;5027361;28;20204;-74
2021/12/01 01:28:57;;;;;;;0.10;0.10;;;4.80;99.90;3.60;95775.00;;;;5036765;28;20249;-75
2021/12/01 01:31:26;;;;;;;0.10;0.10;;;4.80;99.90;3.50;95779.00;;;;5020746;28;20265;-73
2021/12/01 01:33:54;;;;;;;0.10;0.10;;;4.80;99.90;3.50;95770.00;;;;5021261;28;20203;-74
2021/12/01 01:36:22;;;;;;;0.10;0.10;;;4.80;99.90;3.60;95775.00;;;;5019155;28;20246;-74
2021/12/01 01:38:52;;;;;;;0.10;0.10;;;4.80;99.90;3.50;95776.00;;;;5020659;28;20219;-74
2021/12/01 01:41:21;;;;;;;0.10;0.10;;;4.80;99.90;3.60;95809.00;;;;5019679;28;20215;-74
2021/12/01 01:43:52;;;;;;;0.10;0.10;;;4.80;99.90;3.50;95769.00;;;;5021563;28;20596;-74
2021/12/01 01:46:20;;;;;;;0.10;0.10;;;4.80;99.90;3.50;95797.00;;;;5020931;28;20602;-74
2021/12/01 01:48:52;;;;;;;0.10;0.10;;;4.80;99.90;3.50;95784.00;;;;5022014;28;20576;-75
2021/12/01 01:51:25;;;;;;;0.10;0.10;;;4.80;99.90;3.50;95757.00;;;;5018759;28;20222;-75
2021/12/01 01:53:56;;;;;;;0.10;0.10;;;4.80;99.90;3.50;95759.00;;;;5019406;28;20719;-75
2021/12/01 01:56:26;;;;;;;0.10;0.10;;;4.80;99.90;3.50;95758.00;;;;5027196;28;20195;-75
2021/12/01 01:58:56;;;;;;;0.10;0.10;;;4.80;99.90;3.50;95745.00;;;;5031530;28;20223;-74
2021/12/01 02:04:13;;;;;;;0.10;0.10;;;4.80;99.90;3.40;95746.00;;;;5035257;28;20226;-74
2021/12/01 02:06:41;;;;;;;0.10;0.10;;;4.70;99.90;3.40;95730.00;;;;5034765;28;20664;-74
2021/12/01 02:09:10;;;;;;;0.10;0.10;;;4.70;99.90;3.50;95746.00;;;;5034062;28;20215;-74
2021/12/01 02:11:39;;;;;;;0.10;0.10;;;4.80;99.90;3.50;95725.00;;;;5035651;28;20218;-74
2021/12/01 02:14:07;;;;;;;0.10;0.10;;;4.80;99.90;3.50;95750.00;;;;5038550;28;20191;-74
2021/12/01 02:16:36;;;;;;;0.10;0.10;;;4.70;99.90;3.60;95749.00;;;;5036399;28;20194;-74
2021/12/01 02:19:04;;;;;;;0.10;0.10;;;4.80;99.90;3.50;95733.00;;;;5024708;28;20215;-74
2021/12/01 02:21:34;;;;;;;0.10;0.10;;;4.80;99.90;3.40;95674.00;;;;5034728;28;20231;-74
2021/12/01 02:24:06;;;;;;;0.10;0.10;;;4.70;99.90;3.50;95706.00;;;;5038249;28;20254;-74
2021/12/01 02:26:41;;;;;;;0.10;0.10;;;4.80;99.90;3.40;95648.00;;;;5025197;28;20187;-74
2021/12/01 02:29:13;;;;;;;0.10;0.10;;;4.70;99.90;3.40;95693.00;;;;5021091;28;20225;-74
2021/12/01 02:31:43;;;;;;;0.10;0.10;;;4.70;99.90;3.40;95726.00;;;;5018372;28;20223;-74
2021/12/01 02:34:16;;;;;;;0.10;0.10;;;4.70;99.90;3.30;95676.00;;;;5020862;28;20195;-75
2021/12/01 02:36:48;;;;;;;0.10;0.10;;;4.70;99.90;3.40;95644.00;;;;5019898;28;20214;-74
2021/12/01 02:39:17;;;;;;;0.10;0.10;;;4.70;99.90;3.40;95658.00;;;;5019953;28;20226;-75
2021/12/01 02:41:51;;;;;;;0.10;0.10;;;4.70;99.90;3.40;95680.00;;;;5019701;28;20815;-75
2021/12/01 02:44:20;;;;;;;0.10;0.10;;;4.70;99.90;3.00;94584.00;;;;5029990;28;20211;-75
2021/12/01 02:46:49;;;;;;;0.10;0.10;;;4.70;99.90;2.90;94349.00;;;;5024399;28;20203;-75
2021/12/01 02:49:21;;;;;;;0.10;0.10;;;4.70;99.90;2.90;94664.00;;;;5020936;28;20261;-74
2021/12/01 02:51:53;;;;;;;0.10;0.10;;;4.70;99.90;3.50;95688.00;;;;5020271;28;20223;-74
2021/12/01 02:54:23;;;;;;;0.10;0.10;;;4.70;99.90;3.00;94985.00;;;;5020624;28;20206;-74
2021/12/01 02:56:54;;;;;;;0.10;0.10;;;4.70;99.90;3.40;95565.00;;;;5020600;28;20192;-74
2021/12/01 02:59:23;;;;;;;0.10;0.10;;;4.70;99.90;2.90;93707.00;;;;5035402;28;20231;-74
2021/12/01 03:01:51;;;;;;;0.10;0.10;;;4.70;99.90;3.10;93341.00;;;;5019389;28;20633;-74
2021/12/01 03:04:20;;;;;;;0.10;0.10;;;4.70;99.90;3.50;95624.00;;;;5018561;28;20227;-74
2021/12/01 03:06:53;;;;;;;0.10;0.10;;;4.80;99.90;3.10;93506.00;;;;5018187;28;20238;-74
2021/12/01 03:09:21;;;;;;;0.10;0.10;;;4.80;99.90;3.10;93400.00;;;;5019305;28;20207;-75
2021/12/01 03:11:50;;;;;;;0.10;0.10;;;4.80;99.90;3.00;93569.00;;;;5019158;28;20228;-75
2021/12/01 03:14:20;;;;;;;0.10;0.10;;;4.70;99.90;3.00;93532.00;;;;5020599;28;20200;-74
2021/12/01 03:16:51;;;;;;;0.10;0.10;;;4.70;99.90;3.00;93871.00;;;;5017830;28;20203;-74
2021/12/01 03:19:20;;;;;;;0.10;0.10;;;4.70;99.90;3.00;93870.00;;;;5019909;28;20782;-74
2021/12/01 03:21:48;;;;;;;0.10;0.10;;;4.80;99.90;3.50;95627.00;;;;5022321;28;20231;-74
2021/12/01 03:24:17;;;;;;;0.10;0.10;;;4.80;99.90;3.00;93900.00;;;;5023097;28;20565;-74
2021/12/01 03:26:45;;;;;;;0.08;0.08;;;4.80;99.90;3.00;93995.00;;;;5018994;28;20200;-74
2021/12/01 03:29:15;;;;;;;0.10;0.10;;;4.80;99.90;3.00;93867.00;;;;5020921;28;20261;-74
2021/12/01 03:31:44;;;;;;;0.10;0.10;;;4.80;99.90;3.10;93771.00;;;;5018549;28;20290;-74
2021/12/01 03:34:12;;;;;;;0.10;0.10;;;4.80;99.90;3.10;93660.00;;;;5018729;28;20206;-73
2021/12/01 03:36:40;;;;;;;0.10;0.10;;;4.80;99.90;3.00;93697.00;;;;5018973;28;20242;-74
2021/12/01 03:39:08;;;;;;;0.10;0.10;;;4.80;99.90;3.00;94026.00;;;;5019604;28;20227;-74
2021/12/01 03:41:38;;;;;;;0.00;0.00;;;4.80;99.90;3.00;93824.00;;;;5019149;28;20262;-75
2021/12/01 03:44:06;;;;;;;0.10;0.10;;;4.80;99.90;3.00;93714.00;;;;5018704;28;20200;-74
2021/12/01 03:46:34;;;;;;;0.10;0.10;;;4.80;99.90;3.10;93690.00;;;;5018002;28;20261;-74
2021/12/01 03:49:03;;;;;;;0.10;0.10;;;4.80;99.90;3.00;93722.00;;;;5019100;28;20253;-74
2021/12/01 03:51:31;;;;;;;0.10;0.10;;;4.80;99.90;3.10;93816.00;;;;5046538;22;20599;-75
2021/12/01 03:53:59;;;;;;;0.10;0.10;;;4.80;99.90;3.00;93663.00;;;;5026683;28;20235;-75
2021/12/01 03:56:27;;;;;;;0.10;0.10;;;4.80;99.90;3.10;93602.00;;;;5027835;28;20253;-75
2021/12/01 03:58:57;;;;;;;0.03;0.03;;;4.80;99.90;3.10;93388.00;;;;5025054;28;20227;-75
2021/12/01 04:01:25;;;;;;;0.10;0.10;;;4.80;99.90;3.10;93750.00;;;;5024383;28;20289;-75
2021/12/01 04:03:53;;;;;;;0.10;0.10;;;4.80;99.90;3.10;93742.00;;;;5010569;28;20212;-75
2021/12/01 04:06:21;;;;;;;0.10;0.10;;;4.80;99.90;3.10;93605.00;;;;5010632;28;20211;-74
2021/12/01 04:08:49;;;;;;;0.10;0.10;;;4.80;99.90;3.00;93741.00;;;;5012330;28;20599;-75
2021/12/01 04:11:17;;;;;;;0.10;0.10;;;4.80;99.90;3.00;93615.00;;;;5010904;28;20270;-74
2021/12/01 04:13:45;;;;;;;0.10;0.10;;;4.80;99.90;3.10;94813.00;;;;5012637;28;21016;-74
2021/12/01 04:16:15;;;;;;;0.10;0.10;;;4.80;99.90;3.00;94101.00;;;;5010273;28;20278;-75
2021/12/01 04:18:44;;;;;;;0.10;0.10;;;4.80;99.90;3.10;93518.00;;;;5012528;28;20215;-75
2021/12/01 04:21:12;;;;;;;0.10;0.10;;;4.80;99.90;3.00;93560.00;;;;5012069;28;20220;-75
2021/12/01 04:23:40;;;;;;;0.10;0.10;;;4.80;99.90;3.00;93458.00;;;;5012992;28;20638;-75
2021/12/01 04:26:12;;;;;;;0.10;0.10;;;4.70;99.90;2.90;93669.00;;;;5007703;28;20521;-74
2021/12/01 04:28:40;;;;;;;0.13;0.13;;;4.70;99.90;2.90;93663.00;;;;5011891;28;20220;-74
2021/12/01 04:31:08;;;;;;;0.10;0.10;;;4.70;99.90;2.90;93620.00;;;;5008836;28;20281;-75
2021/12/01 04:33:37;;;;;;;0.10;0.10;;;4.70;99.90;2.90;93609.00;;;;5010848;28;20275;-75
2021/12/01 04:36:05;;;;;;;0.10;0.10;;;4.60;99.90;2.80;93608.00;;;;5023604;28;20250;-74
2021/12/01 04:38:33;;;;;;;0.10;0.10;;;4.60;99.90;2.80;93546.00;;;;5011588;28;20223;-75
2021/12/01 04:41:02;;;;;;;0.10;0.10;;;4.50;99.90;2.80;93561.00;;;;5012214;28;20669;-74
2021/12/01 04:43:30;;;;;;;0.10;0.10;;;4.50;99.90;2.70;93745.00;;;;5008837;28;20204;-74
2021/12/01 04:46:00;;;;;;;0.10;0.10;;;4.50;99.90;3.20;95544.00;;;;5010877;28;20242;-74
2021/12/01 04:48:28;;;;;;;0.10;0.10;;;4.50;99.90;3.20;95542.00;;;;5012140;28;20200;-75
2021/12/01 04:50:58;;;;;;;0.10;0.10;;;4.50;99.90;3.10;95461.00;;;;5011678;28;20203;-74
2021/12/01 04:53:27;;;;;;;0.10;0.10;;;4.50;99.90;3.10;95469.00;;;;5008829;28;20196;-74
2021/12/01 04:55:55;;;;;;;0.10;0.10;;;4.50;99.90;3.10;95447.00;;;;5010262;28;20196;-74
2021/12/01 04:58:24;;;;;;;0.10;0.10;;;4.50;99.90;3.10;95450.00;;;;5010155;28;20204;-74
2021/12/01 05:00:52;;;;;;;0.10;0.10;;;4.50;99.90;3.10;95440.00;;;;5011510;28;20195;-74
2021/12/01 05:03:20;;;;;;;0.10;0.10;;;4.50;99.90;3.10;95447.00;;;;5008986;28;20208;-73
2021/12/01 05:05:51;;;;;;;0.10;0.10;;;4.50;99.90;3.10;95446.00;;;;5009927;28;20192;-73
2021/12/01 05:08:22;;;;;;;0.20;0.20;;;4.50;99.90;3.10;95462.00;;;;5009168;28;20258;-73
2021/12/01 05:10:51;;;;;;;0.10;0.10;;;4.50;99.90;3.20;95501.00;;;;5010070;28;20196;-74
2021/12/01 05:13:19;;;;;;;0.10;0.10;;;4.50;99.90;3.20;95466.00;;;;5011282;28;20249;-74
2021/12/01 05:15:47;;;;;;;0.10;0.10;;;4.50;99.90;2.70;93973.00;;;;5009505;28;20203;-73
2021/12/01 05:18:16;;;;;;;0.10;0.10;;;4.50;99.90;2.70;94157.00;;;;5014400;28;20216;-73
2021/12/01 05:20:44;;;;;;;0.10;0.10;;;4.50;99.90;3.20;95464.00;;;;5015572;28;20302;-74
2021/12/01 05:23:15;;;;;;;0.10;0.10;;;4.50;99.90;3.20;95460.00;;;;5012174;28;20250;-73
2021/12/01 05:25:47;;;;;;;0.10;0.10;;;4.50;99.90;3.10;95415.00;;;;5012665;28;20206;-74
2021/12/01 05:28:16;;;;;;;0.10;0.10;;;4.50;99.90;3.10;95385.00;;;;5022861;28;20208;-72
2021/12/01 05:30:45;;;;;;;0.10;0.10;;;4.50;99.90;3.10;95345.00;;;;5020512;28;20200;-74
2021/12/01 05:33:15;;;;;;;0.10;0.10;;;4.50;99.90;3.20;95327.00;;;;5014254;28;20250;-74
2021/12/01 05:35:46;;;;;;;0.10;0.10;;;4.50;99.90;3.20;95370.00;;;;5009917;28;20191;-74
2021/12/01 05:38:16;;;;;;;0.10;0.10;;;4.50;99.90;3.30;95444.00;;;;5023932;28;20203;-74
2021/12/01 05:40:47;;;;;;;0.10;0.10;;;4.60;99.90;3.30;95407.00;;;;5007542;28;20228;-72
2021/12/01 05:43:15;;;;;;;0.08;0.08;;;4.60;99.90;3.30;95438.00;;;;5022067;28;20203;-73
2021/12/01 05:45:44;;;;;;;0.10;0.10;;;4.60;99.90;3.40;95475.00;;;;5010035;28;20731;-72
2021/12/01 05:48:12;;;;;;;0.10;0.10;;;4.70;99.90;3.10;94877.00;;;;5010564;28;20196;-72
2021/12/01 05:50:41;;;;;;;0.10;0.10;;;4.70;99.90;3.10;94547.00;;;;5010589;28;20195;-72
2021/12/01 05:53:10;;;;;;;0.10;0.10;;;4.80;99.90;3.60;95471.00;;;;5007268;28;20227;-72
2021/12/01 05:55:38;;;;;;;0.10;0.10;;;4.80;99.90;3.60;95425.00;;;;5006762;28;20662;-72
2021/12/01 05:58:08;;;;;;;0.10;0.10;;;4.80;99.90;3.00;94164.00;;;;5021881;28;20196;-74
2021/12/01 06:00:37;;;;;;;0.10;0.10;;;4.80;99.90;3.60;95424.00;;;;5007722;28;20273;-74
2021/12/01 06:03:05;;;;;;;0.10;0.10;;;4.80;99.90;3.60;95371.00;;;;5007178;28;20227;-72
2021/12/01 06:05:33;;;;;;;0.10;0.10;;;4.90;99.90;3.60;95368.00;;;;5006447;28;20211;-72
2021/12/01 06:08:01;;;;;;;0.10;0.10;;;4.90;99.90;3.60;95374.00;;;;5008736;28;20250;-73
2021/12/01 06:10:29;;;;;;;0.10;0.10;;;4.90;99.90;3.60;95357.00;;;;5012619;28;20200;-72
2021/12/01 06:12:57;;;;;;;0.10;0.10;;;4.90;99.90;3.50;95241.00;;;;5010969;28;20223;-72
2021/12/01 06:15:27;;;;;;;0.10;0.10;;;4.90;99.90;3.50;95262.00;;;;5010395;28;20420;-72
2021/12/01 06:17:57;;;;;;;0.10;0.10;;;4.90;99.90;3.60;95301.00;;;;5010284;28;20210;-72
2021/12/01 06:20:27;;;;;;;0.10;0.10;;;4.90;99.90;3.60;95295.00;;;;5007982;28;20226;-73
2021/12/01 06:22:55;;;;;;;0.10;0.10;;;5.00;99.90;3.60;95367.00;;;;5008862;28;20714;-73
2021/12/01 06:25:23;;;;;;;0.10;0.10;;;5.00;99.90;3.60;95319.00;;;;5007185;28;20239;-75
2021/12/01 06:27:54;;;;;;;0.08;0.08;;;5.00;99.90;3.60;95220.00;;;;5008683;28;20200;-73
2021/12/01 06:30:22;;;;;;;0.10;0.10;;;5.00;99.90;3.60;95241.00;;;;5008524;28;20599;-73
2021/12/01 06:32:52;;;;;;;0.10;0.10;;;5.00;99.90;3.30;94568.00;;;;5008690;28;20254;-73
2021/12/01 06:35:21;;;;;;;0.13;0.13;;;5.00;99.90;3.60;95263.00;;;;5005132;28;20203;-72
2021/12/01 06:37:50;;;;;;;0.10;0.10;;;5.00;99.90;3.60;95253.00;;;;4997868;28;20200;-72
2021/12/01 06:40:21;;;;;;;0.13;0.13;;;5.00;99.90;3.60;95291.00;;;;5003684;28;20285;-71
2021/12/01 06:42:59;;;;;;;0.10;0.10;;;5.00;99.90;3.60;95326.00;;;;5003722;28;20755;-72
2021/12/01 06:45:27;;;;;;;0.10;0.10;;;5.00;99.90;3.70;95310.00;;;;5009007;28;20188;-72
2021/12/01 06:47:57;;;;;;;0.10;0.10;;;5.00;99.90;3.60;95281.00;;;;5002125;28;20233;-72
2021/12/01 06:50:25;;;;;;;0.10;0.10;;;5.00;99.90;3.70;95337.00;;;;4999789;28;20739;-72
2021/12/01 06:52:54;;;;;;;0.10;0.10;;;5.00;99.90;3.70;95356.00;;;;5007054;28;20270;-72
2021/12/01 06:55:23;;;;;;;0.10;0.10;;;5.00;99.90;3.40;94882.00;;;;5006287;28;20208;-71
2021/12/01 06:57:51;;;;;;;0.10;0.10;;;5.00;99.90;3.70;95385.00;;;;5012736;28;20606;-74
2021/12/01 07:00:21;;;;;;;0.10;0.10;;;5.00;99.90;3.70;95246.00;;;;5012325;28;20270;-74
2021/12/01 07:02:49;;;;;;;0.10;0.10;;;5.00;99.90;3.70;95361.00;;;;5010357;28;20241;-74
2021/12/01 07:05:20;;;;;;;0.10;0.10;;;5.00;99.90;3.70;95362.00;;;;5010634;28;20196;-74
2021/12/01 07:07:49;;;;;;;0.10;0.10;;;5.00;99.90;3.60;95297.00;;;;5007875;28;20243;-72
2021/12/01 07:10:17;;;;;;;0.10;0.10;;;5.00;99.90;3.60;95181.00;;;;5007750;28;20547;-72
2021/12/01 07:12:45;;;;;;;0.10;0.10;;;5.00;99.90;3.70;95375.00;;;;5011544;28;20223;-74
2021/12/01 07:15:19;;;;;;;0.10;0.10;;;5.00;99.90;3.70;95293.00;;;;5013029;28;20274;-72
2021/12/01 07:17:50;;;;;;;0.10;0.10;;;5.10;99.90;3.70;95332.00;;;;5003494;28;20199;-71
2021/12/01 07:20:20;;;;;;;0.10;0.10;;;5.00;99.90;3.70;95269.00;;;;5007836;28;20223;-74
2021/12/01 07:22:48;;;;;;;0.10;0.10;;;5.10;99.90;3.80;95307.00;;;;5008533;28;20644;-73
2021/12/01 07:25:19;;;;;;;0.10;0.10;;;5.10;99.90;3.80;95299.00;;;;5010820;28;20195;-74
2021/12/01 07:27:47;;;;;;;0.10;0.10;;;5.10;99.90;3.50;94751.00;;;;5015748;28;20209;-73
2021/12/01 07:30:15;;;;;;;0.10;0.10;;;5.10;99.90;3.90;95291.00;;;;5018939;28;20195;-74
2021/12/01 07:32:45;;;;;;;0.10;0.10;;;5.20;99.90;3.90;95293.00;;;;5014407;28;20229;-72
2021/12/01 07:35:17;;;;;;;0.10;0.10;;;5.20;99.90;3.90;95261.00;;;;5031146;28;20210;-73
2021/12/01 07:37:49;;;;;;;0.10;0.10;;;5.20;99.90;3.90;95267.00;;;;5016605;28;20211;-73
2021/12/01 07:40:17;;;;;;;0.10;0.10;;;5.20;99.90;3.90;95248.00;;;;5018351;28;20212;-73
2021/12/01 07:42:56;;;;;;;0.10;0.10;;;5.20;99.90;3.90;95346.00;;;;5014187;28;20269;-72
2021/12/01 07:46:00;;;;;;;0.10;0.10;;;5.30;99.90;4.00;95245.00;;;;5015327;28;20231;-72
2021/12/01 07:48:29;;;;;;;0.10;0.10;;;5.30;99.90;3.50;94131.00;;;;5014536;28;20656;-73
2021/12/01 07:50:57;;;;;;;0.10;0.10;;;5.30;99.90;3.60;93567.00;;;;5015275;28;20669;-72
2021/12/01 07:53:26;;;;;;;0.10;0.10;;;5.30;99.90;3.60;93576.00;;;;5012823;28;20207;-71
2021/12/01 07:55:54;;;;;;;0.03;0.03;;;5.30;99.90;3.60;93553.00;;;;5014612;28;20219;-72
2021/12/01 07:58:22;;;;;;;0.10;0.10;;;5.40;99.90;3.70;93339.00;;;;5011621;28;20192;-72
2021/12/01 08:00:50;;;;;;;0.10;0.10;;;5.40;99.90;3.70;93438.00;;;;5016020;28;20231;-74
2021/12/01 08:03:18;;;;;;;0.10;0.10;;;5.40;99.90;3.60;93466.00;;;;5019154;28;20196;-73
2021/12/01 08:05:47;;;;;;;0.10;0.10;;;5.40;99.90;3.70;93524.00;;;;5017309;28;20219;-74
2021/12/01 08:08:15;;;;;;;0.10;0.10;;;5.40;99.90;3.70;93674.00;;;;5016244;28;20200;-73
2021/12/01 08:10:46;;;;;;;0.10;0.10;;;5.40;99.90;3.60;93775.00;;;;5013984;28;20624;-73
2021/12/01 08:13:14;;;;;;;0.10;0.10;;;5.40;99.90;3.70;93566.00;;;;5015257;28;20238;-73
2021/12/01 08:15:52;;;;;;;0.10;0.10;;;5.50;99.90;3.70;93626.00;;;;5014416;28;20234;-73
2021/12/01 08:18:20;;;;;;;0.10;0.10;;;5.50;99.90;3.70;93610.00;;;;5013616;28;20192;-72
2021/12/01 08:20:48;;;;;;;0.10;0.10;;;5.50;99.90;3.70;93515.00;;;;5010827;28;20228;-72
2021/12/01 08:23:16;;;;;;;0.10;0.10;;;5.40;99.90;3.60;93451.00;;;;5010304;28;20195;-72
2021/12/01 08:25:46;;;;;;;0.10;0.10;;;5.40;99.90;3.70;93784.00;;;;5013062;28;20188;-73
2021/12/01 08:28:14;;;;;;;0.05;0.05;;;5.40;99.90;3.70;93703.00;;;;5011966;28;20192;-72
2021/12/01 08:30:42;;;;;;;0.17;0.17;;;5.40;99.90;3.70;93660.00;;;;5011017;28;20257;-71
2021/12/01 08:33:10;;;;;;;0.13;0.13;;;5.40;99.90;3.60;93801.00;;;;5011181;28;20230;-71
2021/12/01 08:35:40;;;;;;;0.10;0.10;;;5.40;99.90;3.60;93623.00;;;;5013948;28;20222;-71
2021/12/01 08:38:08;;;;;;;0.10;0.10;;;5.40;99.90;3.60;93622.00;;;;5014211;28;20571;-73
2021/12/01 08:40:37;;;;;;;0.10;0.10;;;5.40;99.90;3.60;93830.00;;;;5012720;28;20192;-73
2021/12/01 08:43:06;;;;;;;0.10;0.10;;;5.40;99.90;3.60;93881.00;;;;5005224;28;20681;-74
2021/12/01 08:45:34;;;;;;;0.10;0.10;;;5.30;99.90;3.60;93732.00;;;;5007458;28;20200;-71
2021/12/01 08:48:03;;;;;;;0.10;0.10;;;5.30;99.90;3.50;93563.00;;;;5007071;28;20207;-71
2021/12/01 08:50:32;;;;;;;0.10;0.10;;;5.30;99.90;3.60;93727.00;;;;5009243;28;20191;-71
2021/12/01 08:53:00;;;;;;;0.10;0.10;;;5.30;99.90;3.50;93435.00;;;;5007017;28;20729;-71
2021/12/01 08:55:29;;;;;;;0.10;0.10;;;5.30;99.90;3.50;93650.00;;;;5008910;28;20477;-71
2021/12/01 08:58:09;;;;;;;0.10;0.10;;;5.30;99.90;3.60;93780.00;;;;5008882;28;20196;-71
2021/12/01 09:00:41;;;;;;;0.10;0.10;;;5.30;99.90;3.60;93687.00;;;;5012475;28;20196;-71
2021/12/01 09:03:10;;;;;;;0.10;0.10;;;5.40;99.90;3.70;93714.00;;;;5011582;28;20212;-71
2021/12/01 09:05:38;;;;;;;0.10;0.10;;;5.40;99.90;3.80;93658.00;;;;5016245;28;20196;-73
2021/12/01 09:08:08;;;;;;;0.10;0.10;;;5.60;99.90;3.80;93372.00;;;;5018050;28;20207;-72
2021/12/01 09:10:36;;;;;;;0.00;0.00;;;5.50;99.90;3.10;93500.00;;;;5016692;28;20200;-73
2021/12/01 09:13:06;;;;;;;0.10;0.10;;;5.60;99.90;3.80;93599.00;;;;5018150;28;20223;-75
2021/12/01 09:15:38;;;;;;;0.10;0.10;;;5.60;99.90;3.90;93407.00;;;;5017884;28;20200;-75
2021/12/01 09:18:06;;;;;;;0.10;0.10;;;5.60;99.90;3.90;93422.00;;;;5019658;28;20238;-73
2021/12/01 09:20:34;;;;;;;0.10;0.10;;;5.60;99.90;4.50;95172.00;;;;5020697;28;20192;-73
2021/12/01 09:23:03;;;;;;;0.10;0.10;;;5.70;99.90;4.40;95143.00;;;;5021600;28;20223;-72
2021/12/01 09:25:31;;;;;;;0.10;0.10;;;5.70;99.90;4.50;95142.00;;;;5017524;28;20254;-75
2021/12/01 09:28:13;;;;;;;0.10;0.10;;;5.70;99.90;4.50;95137.00;;;;5012805;28;20196;-73
2021/12/01 09:30:43;;;;;;;0.08;0.08;;;5.70;99.90;4.60;95157.00;;;;5012304;28;20200;-73
2021/12/01 09:33:12;;;;;;;0.10;0.10;;;5.80;99.90;4.70;95161.00;;;;5007111;28;20274;-76
2021/12/01 09:35:41;;;;;;;0.10;0.10;;;5.90;99.90;4.70;95161.00;;;;5008807;28;20210;-74
2021/12/01 09:38:13;;;;;;;0.10;0.10;;;5.90;99.90;4.30;93184.00;;;;5011114;28;20561;-73
2021/12/01 09:40:46;;;;;;;0.10;0.10;;;6.00;99.90;4.30;92918.00;;;;5008869;28;20206;-75
2021/12/01 09:43:16;;;;;;;0.10;0.10;;;6.00;99.90;4.30;93072.00;;;;5011412;28;20223;-73
2021/12/01 09:45:47;;;;;;;0.10;0.10;;;6.10;99.90;4.90;95154.00;;;;5017590;28;20204;-75
2021/12/01 09:48:16;;;;;;;0.10;0.10;;;6.10;99.90;4.90;95129.00;;;;5014948;28;20276;-73
2021/12/01 09:50:55;;;;;;;0.10;0.10;;;6.10;99.90;5.00;95137.00;;;;5015110;28;20193;-73
2021/12/01 09:53:23;;;;;;;0.10;0.10;;;6.10;99.90;5.00;95129.00;;;;5013299;28;20200;-73
2021/12/01 09:55:51;;;;;;;0.10;0.10;;;6.20;99.90;4.90;95096.00;;;;5011697;28;20196;-73
2021/12/01 09:58:23;;;;;;;0.10;0.10;;;6.20;99.90;5.00;95081.00;;;;5011007;28;20196;-71
2021/12/01 10:01:05;;;;;;;0.03;0.03;;;6.20;99.90;5.00;95116.00;;;;5006087;28;20688;-72
2021/12/01 10:03:33;;;;;;;0.10;0.10;;;6.20;99.90;4.90;95010.00;;;;5007905;28;20227;-71
2021/12/01 10:06:04;;;;;;;0.20;0.20;;;6.20;99.90;4.90;95040.00;;;;5009897;28;20192;-71
2021/12/01 10:08:36;;;;;;;0.10;0.10;;;6.20;99.90;4.90;95017.00;;;;5011509;28;20199;-72
2021/12/01 10:11:08;;;;;;;0.10;0.10;;;6.20;99.90;4.80;94998.00;;;;5014740;28;20261;-73
2021/12/01 10:13:39;;;;;;;0.10;0.10;;;6.10;99.90;4.80;95026.00;;;;5016233;28;20203;-73
2021/12/01 10:16:11;;;;;;;0.10;0.10;;;6.10;99.90;4.90;95005.00;;;;5015837;28;20266;-73
2021/12/01 10:18:43;;;;;;;0.10;0.10;;;6.10;99.90;4.90;94975.00;;;;5015955;28;20214;-73
2021/12/01 10:21:18;;;;;;;0.10;0.10;;;6.10;99.90;4.90;94956.00;;;;5016445;28;20216;-73
2021/12/01 10:23:49;;;;;;;0.10;0.10;;;6.20;99.90;4.70;94761.00;;;;5022292;28;20550;-73
2021/12/01 10:26:22;;;;;;;0.10;0.10;;;6.10;99.90;4.80;94945.00;;;;5022424;28;20220;-73
2021/12/01 10:28:53;;;;;;;0.10;0.10;;;6.10;99.90;4.90;95001.00;;;;5014771;28;20195;-73
2021/12/01 10:31:39;;;;;;;0.08;0.08;;;6.20;99.90;226.50;231333.00;;;;5012807;28;20690;-73
2021/12/01 10:34:25;;;;;;;0.10;0.10;;;6.20;99.90;226.50;231333.00;;;;5016482;28;20195;-73
2021/12/01 10:37:11;;;;;;;0.10;0.10;;;6.10;99.90;226.50;231333.00;;;;5010307;28;20430;-73
2021/12/01 10:39:42;;;;;;;0.08;0.08;;;6.10;99.90;226.50;231333.00;;;;5019222;28;20187;-73
2021/12/01 10:42:15;;;;;;;0.10;0.10;;;6.20;99.90;226.50;231333.00;;;;5016839;28;20220;-73
2021/12/01 10:44:59;;;;;;;0.10;0.10;;;6.20;99.90;226.50;231333.00;;;;5017150;28;20191;-74
2021/12/01 10:47:38;;;;;;;0.10;0.10;;;6.20;99.90;226.50;231333.00;;;;5013178;28;20207;-73
2021/12/01 10:50:08;;;;;;;0.10;0.10;;;6.20;99.90;226.50;231333.00;;;;5011825;28;20731;-74
2021/12/01 10:52:39;;;;;;;0.00;0.00;;;6.20;99.90;226.50;231333.00;;;;5008395;28;20316;-74
2021/12/01 10:55:12;;;;;;;0.10;0.10;;;6.20;99.90;226.50;231333.00;;;;4999878;28;20255;-75
2021/12/01 10:57:43;;;;;;;0.10;0.10;;;6.20;99.90;5.00;94850.00;;;;5006410;28;20199;-73
2021/12/01 11:00:22;;;;;;;0.03;0.03;;;6.20;99.90;226.50;163804.00;;;;5000085;28;20199;-75
2021/12/01 11:02:52;;;;;;;0.10;0.10;;;6.30;99.90;5.10;94937.00;;;;5008393;28;20235;-73
2021/12/01 11:05:30;;;;;;;0.10;0.10;;;6.30;99.90;5.10;94983.00;;;;5009373;28;20188;-74
2021/12/01 11:08:17;;;;;;;0.00;0.00;;;6.30;99.90;5.00;94861.00;;;;5008691;28;20612;-74
2021/12/01 11:10:47;;;;;;;0.10;0.10;;;6.30;99.90;5.10;94786.00;;;;5009289;28;20187;-75
2021/12/01 11:13:16;;;;;;;0.10;0.10;;;6.30;99.90;5.00;94919.00;;;;5008734;28;20259;-72
2021/12/01 11:15:52;;;;;;;0.00;0.00;;;6.30;99.90;5.00;94934.00;;;;5000391;28;20537;-74
2021/12/01 11:18:44;;;;;;;0.10;0.10;;;6.30;99.90;5.10;94972.00;;;;5005087;28;20250;-72
2021/12/01 11:21:15;;;;;;;0.10;0.10;;;6.30;99.90;5.20;94950.00;;;;5001909;28;20219;-74
2021/12/01 11:23:49;;;;;;;0.00;0.00;;;6.40;99.90;5.20;94945.00;;;;5005947;28;20219;-72
2021/12/01 11:26:20;;;;;;;0.10;0.10;;;6.40;99.90;5.20;94897.00;;;;5004285;28;20676;-73
2021/12/01 11:28:51;;;;;;;0.10;0.10;;;6.50;99.90;5.30;94902.00;;;;5009461;28;20200;-72